sensor_id;sensor_type;location;lat;lon;timestamp;pressure;altitude;pressure_sealevel;temperature;humidity
45941;BME280;31858;46.008;8.978;2023-04-29T00:00:11;94371.75;;;13.33;100.00
45941;BME280;31858;46.008;8.978;2023-04-29T00:10:13;94363.28;;;13.38;100.00
45941;BME280;31858;46.008;8.978;2023-04-29T00:20:16;94370.84;;;13.50;100.00
45941;BME280;31858;46.008;8.978;2023-04-29T00:30:18;94357.59;;;13.32;100.00
45941;BME280;31858;46.008;8.978;2023-04-29T00:40:21;94341.19;;;13.27;100.00
45941;BME280;31858;46.008;8.978;2023-04-29T00:50:22;94341.88;;;13.38;100.00
45941;BME280;31858;46.008;8.978;2023-04-29T01:00:26;94343.78;;;13.41;100.00
45941;BME280;31858;46.008;8.978;2023-04-29T01:10:31;94330.44;;;13.34;100.00
45941;BME280;31858;46.008;8.978;2023-04-29T01:20:37;94286.78;;;13.44;100.00
45941;BME280;31858;46.008;8.978;2023-04-29T01:30:47;94321.69;;;13.26;100.00
45941;BME280;31858;46.008;8.978;2023-04-29T01:40:58;94292.13;;;13.44;100.00
45941;BME280;31858;46.008;8.978;2023-04-29T01:51:02;94315.06;;;13.45;100.00
45941;BME280;31858;46.008;8.978;2023-04-29T02:01:05;94301.34;;;13.39;100.00
45941;BME280;31858;46.008;8.978;2023-04-29T02:11:10;94313.56;;;13.44;100.00
45941;BME280;31858;46.008;8.978;2023-04-29T02:21:12;94310.47;;;13.46;100.00
45941;BME280;31858;46.008;8.978;2023-04-29T02:31:15;94298.03;;;13.21;100.00
45941;BME280;31858;46.008;8.978;2023-04-29T02:41:17;94299.97;;;13.17;100.00
45941;BME280;31858;46.008;8.978;2023-04-29T02:51:20;94312.22;;;13.11;100.00
45941;BME280;31858;46.008;8.978;2023-04-29T03:01:21;94286.34;;;12.97;100.00
45941;BME280;31858;46.008;8.978;2023-04-29T03:11:24;94286.41;;;12.87;100.00
45941;BME280;31858;46.008;8.978;2023-04-29T03:21:26;94289.50;;;12.82;100.00
45941;BME280;31858;46.008;8.978;2023-04-29T03:31:30;94289.16;;;12.76;100.00
45941;BME280;31858;46.008;8.978;2023-04-29T03:41:33;94278.88;;;12.67;100.00
45941;BME280;31858;46.008;8.978;2023-04-29T03:51:36;94276.94;;;12.75;100.00
45941;BME280;31858;46.008;8.978;2023-04-29T04:01:38;94273.09;;;12.76;100.00
45941;BME280;31858;46.008;8.978;2023-04-29T04:11:40;94258.59;;;12.77;100.00
45941;BME280;31858;46.008;8.978;2023-04-29T04:21:42;94268.53;;;12.77;100.00
45941;BME280;31858;46.008;8.978;2023-04-29T04:31:45;94271.78;;;13.02;100.00
45941;BME280;31858;46.008;8.978;2023-04-29T04:41:47;94273.75;;;12.98;100.00
45941;BME280;31858;46.008;8.978;2023-04-29T04:51:49;94289.53;;;12.74;100.00
45941;BME280;31858;46.008;8.978;2023-04-29T05:01:51;94297.56;;;12.71;100.00
45941;BME280;31858;46.008;8.978;2023-04-29T05:11:54;94291.84;;;12.72;100.00
45941;BME280;31858;46.008;8.978;2023-04-29T05:21:58;94315.09;;;12.79;100.00
45941;BME280;31858;46.008;8.978;2023-04-29T05:32:01;94311.66;;;12.79;100.00
45941;BME280;31858;46.008;8.978;2023-04-29T05:42:02;94321.94;;;12.87;100.00
45941;BME280;31858;46.008;8.978;2023-04-29T05:52:05;94324.19;;;12.92;100.00
45941;BME280;31858;46.008;8.978;2023-04-29T06:02:07;94324.41;;;13.16;100.00
45941;BME280;31858;46.008;8.978;2023-04-29T06:12:11;94328.41;;;12.90;100.00
45941;BME280;31858;46.008;8.978;2023-04-29T06:22:13;94328.41;;;12.90;100.00
45941;BME280;31858;46.008;8.978;2023-04-29T06:32:16;94337.19;;;12.90;100.00
45941;BME280;31858;46.008;8.978;2023-04-29T06:42:17;94342.56;;;12.90;100.00
45941;BME280;31858;46.008;8.978;2023-04-29T06:52:20;94347.81;;;13.01;100.00
45941;BME280;31858;46.008;8.978;2023-04-29T07:02:22;94345.50;;;13.06;100.00
45941;BME280;31858;46.008;8.978;2023-04-29T07:12:25;94349.25;;;13.20;100.00
45941;BME280;31858;46.008;8.978;2023-04-29T07:22:26;94342.06;;;13.06;100.00
45941;BME280;31858;46.008;8.978;2023-04-29T07:32:29;94343.53;;;13.18;100.00
45941;BME280;31858;46.008;8.978;2023-04-29T07:42:31;94350.00;;;13.24;100.00
45941;BME280;31858;46.008;8.978;2023-04-29T07:52:34;94366.38;;;13.33;100.00
45941;BME280;31858;46.008;8.978;2023-04-29T08:02:36;94369.75;;;13.44;100.00
45941;BME280;31858;46.008;8.978;2023-04-29T08:12:39;94357.09;;;13.48;100.00
45941;BME280;31858;46.008;8.978;2023-04-29T08:22:41;94361.63;;;13.58;100.00
45941;BME280;31858;46.008;8.978;2023-04-29T08:32:44;94349.31;;;13.68;100.00
45941;BME280;31858;46.008;8.978;2023-04-29T08:42:47;94338.91;;;13.77;100.00
45941;BME280;31858;46.008;8.978;2023-04-29T09:02:58;94331.09;;;14.31;100.00
45941;BME280;31858;46.008;8.978;2023-04-29T09:13:01;94316.25;;;14.26;100.00
45941;BME280;31858;46.008;8.978;2023-04-29T09:23:04;94312.22;;;14.45;100.00
45941;BME280;31858;46.008;8.978;2023-04-29T09:33:07;94316.44;;;14.43;100.00
45941;BME280;31858;46.008;8.978;2023-04-29T09:43:15;94321.47;;;14.37;100.00
45941;BME280;31858;46.008;8.978;2023-04-29T09:53:28;94311.09;;;14.73;100.00
45941;BME280;31858;46.008;8.978;2023-04-29T10:03:33;94302.78;;;14.94;100.00
45941;BME280;31858;46.008;8.978;2023-04-29T10:13:35;94293.94;;;15.24;100.00
45941;BME280;31858;46.008;8.978;2023-04-29T10:23:41;94289.63;;;15.54;100.00
45941;BME280;31858;46.008;8.978;2023-04-29T10:33:44;94287.34;;;15.99;100.00
45941;BME280;31858;46.008;8.978;2023-04-29T10:43:48;94277.00;;;15.97;100.00
45941;BME280;31858;46.008;8.978;2023-04-29T10:54:01;94267.34;;;16.00;100.00
45941;BME280;31858;46.008;8.978;2023-04-29T11:04:04;94243.25;;;16.16;100.00
45941;BME280;31858;46.008;8.978;2023-04-29T11:14:08;94238.56;;;16.20;100.00
45941;BME280;31858;46.008;8.978;2023-04-29T11:24:11;94237.13;;;16.36;100.00
45941;BME280;31858;46.008;8.978;2023-04-29T11:34:15;94238.00;;;16.49;100.00
45941;BME280;31858;46.008;8.978;2023-04-29T11:44:21;94227.78;;;16.60;100.00
45941;BME280;31858;46.008;8.978;2023-04-29T11:54:24;94215.91;;;16.57;100.00
45941;BME280;31858;46.008;8.978;2023-04-29T12:04:27;94209.75;;;16.41;100.00
45941;BME280;31858;46.008;8.978;2023-04-29T12:14:29;94210.50;;;16.41;100.00
45941;BME280;31858;46.008;8.978;2023-04-29T12:24:34;94206.63;;;16.42;100.00
45941;BME280;31858;46.008;8.978;2023-04-29T12:34:38;94216.91;;;16.47;100.00
45941;BME280;31858;46.008;8.978;2023-04-29T12:44:44;94220.28;;;16.31;100.00
45941;BME280;31858;46.008;8.978;2023-04-29T12:54:46;94217.47;;;16.39;100.00
45941;BME280;31858;46.008;8.978;2023-04-29T13:04:49;94215.13;;;16.41;100.00
45941;BME280;31858;46.008;8.978;2023-04-29T13:14:50;94209.19;;;16.49;100.00
45941;BME280;31858;46.008;8.978;2023-04-29T13:24:53;94206.28;;;16.40;100.00
45941;BME280;31858;46.008;8.978;2023-04-29T13:34:55;94195.47;;;16.44;100.00
45941;BME280;31858;46.008;8.978;2023-04-29T13:44:58;94194.22;;;16.48;100.00
45941;BME280;31858;46.008;8.978;2023-04-29T13:54:59;94196.97;;;16.45;100.00
45941;BME280;31858;46.008;8.978;2023-04-29T14:05:03;94182.88;;;16.57;100.00
45941;BME280;31858;46.008;8.978;2023-04-29T14:15:06;94180.50;;;16.95;100.00
45941;BME280;31858;46.008;8.978;2023-04-29T14:25:09;94170.09;;;17.58;100.00
45941;BME280;31858;46.008;8.978;2023-04-29T14:35:11;94169.84;;;17.98;100.00
45941;BME280;31858;46.008;8.978;2023-04-29T14:45:14;94165.50;;;18.55;100.00
45941;BME280;31858;46.008;8.978;2023-04-29T14:55:16;94167.16;;;18.90;100.00
45941;BME280;31858;46.008;8.978;2023-04-29T15:05:19;94162.91;;;19.28;100.00
45941;BME280;31858;46.008;8.978;2023-04-29T15:15:21;94158.84;;;18.72;100.00
45941;BME280;31858;46.008;8.978;2023-04-29T15:25:24;94157.56;;;18.77;100.00
45941;BME280;31858;46.008;8.978;2023-04-29T15:35:26;94156.34;;;19.03;100.00
45941;BME280;31858;46.008;8.978;2023-04-29T15:45:29;94151.56;;;19.20;100.00
45941;BME280;31858;46.008;8.978;2023-04-29T15:55:32;94153.41;;;19.23;100.00
45941;BME280;31858;46.008;8.978;2023-04-29T16:05:35;94150.59;;;19.14;100.00
45941;BME280;31858;46.008;8.978;2023-04-29T16:15:37;94146.84;;;18.99;100.00
45941;BME280;31858;46.008;8.978;2023-04-29T16:25:40;94156.66;;;18.42;100.00
45941;BME280;31858;46.008;8.978;2023-04-29T16:35:42;94161.06;;;18.48;100.00
45941;BME280;31858;46.008;8.978;2023-04-29T16:45:45;94171.72;;;18.26;100.00
45941;BME280;31858;46.008;8.978;2023-04-29T16:55:46;94166.66;;;18.29;100.00
45941;BME280;31858;46.008;8.978;2023-04-29T17:05:50;94173.75;;;18.10;100.00
45941;BME280;31858;46.008;8.978;2023-04-29T17:15:51;94162.75;;;17.75;100.00
45941;BME280;31858;46.008;8.978;2023-04-29T17:25:54;94180.84;;;17.29;100.00
45941;BME280;31858;46.008;8.978;2023-04-29T17:35:56;94169.47;;;17.22;100.00
45941;BME280;31858;46.008;8.978;2023-04-29T17:46:01;94173.78;;;17.03;100.00
45941;BME280;31858;46.008;8.978;2023-04-29T17:56:04;94172.44;;;16.79;100.00
45941;BME280;31858;46.008;8.978;2023-04-29T18:06:07;94177.72;;;16.66;100.00
45941;BME280;31858;46.008;8.978;2023-04-29T18:16:08;94184.72;;;16.44;100.00
45941;BME280;31858;46.008;8.978;2023-04-29T18:26:11;94182.84;;;16.41;100.00
45941;BME280;31858;46.008;8.978;2023-04-29T18:36:13;94185.28;;;16.35;100.00
45941;BME280;31858;46.008;8.978;2023-04-29T18:46:16;94205.56;;;16.20;100.00
45941;BME280;31858;46.008;8.978;2023-04-29T18:56:17;94215.97;;;16.18;100.00
45941;BME280;31858;46.008;8.978;2023-04-29T19:06:20;94223.69;;;16.16;100.00
45941;BME280;31858;46.008;8.978;2023-04-29T19:16:22;94231.41;;;16.34;100.00
45941;BME280;31858;46.008;8.978;2023-04-29T19:26:25;94238.16;;;16.22;100.00
45941;BME280;31858;46.008;8.978;2023-04-29T19:36:27;94235.13;;;16.20;100.00
45941;BME280;31858;46.008;8.978;2023-04-29T19:46:31;94247.84;;;15.96;100.00
45941;BME280;31858;46.008;8.978;2023-04-29T19:56:32;94254.19;;;15.86;100.00
45941;BME280;31858;46.008;8.978;2023-04-29T20:06:35;94267.06;;;15.94;100.00
45941;BME280;31858;46.008;8.978;2023-04-29T20:16:37;94276.19;;;16.01;100.00
45941;BME280;31858;46.008;8.978;2023-04-29T20:26:40;94284.88;;;16.08;100.00
45941;BME280;31858;46.008;8.978;2023-04-29T20:36:41;94301.44;;;15.83;100.00
45941;BME280;31858;46.008;8.978;2023-04-29T20:46:44;94295.75;;;15.58;100.00
45941;BME280;31858;46.008;8.978;2023-04-29T20:56:46;94302.72;;;15.52;100.00
45941;BME280;31858;46.008;8.978;2023-04-29T21:06:49;94312.50;;;15.12;100.00
45941;BME280;31858;46.008;8.978;2023-04-29T21:16:51;94322.38;;;14.91;100.00
45941;BME280;31858;46.008;8.978;2023-04-29T21:26:54;94329.56;;;14.98;100.00
45941;BME280;31858;46.008;8.978;2023-04-29T21:36:56;94342.53;;;14.73;100.00
45941;BME280;31858;46.008;8.978;2023-04-29T21:46:59;94362.22;;;14.59;100.00
45941;BME280;31858;46.008;8.978;2023-04-29T21:57:03;94381.06;;;14.52;100.00
45941;BME280;31858;46.008;8.978;2023-04-29T22:07:06;94377.59;;;14.55;100.00
45941;BME280;31858;46.008;8.978;2023-04-29T22:17:07;94381.31;;;14.64;100.00
45941;BME280;31858;46.008;8.978;2023-04-29T22:27:10;94375.09;;;14.71;100.00
45941;BME280;31858;46.008;8.978;2023-04-29T22:37:12;94376.66;;;14.68;100.00
45941;BME280;31858;46.008;8.978;2023-04-29T22:47:15;94375.91;;;14.68;100.00
45941;BME280;31858;46.008;8.978;2023-04-29T22:57:16;94381.72;;;14.63;100.00
45941;BME280;31858;46.008;8.978;2023-04-29T23:07:19;94375.19;;;14.64;100.00
45941;BME280;31858;46.008;8.978;2023-04-29T23:17:21;94375.31;;;14.53;100.00
45941;BME280;31858;46.008;8.978;2023-04-29T23:27:24;94398.09;;;14.31;100.00
45941;BME280;31858;46.008;8.978;2023-04-29T23:37:26;94403.91;;;14.26;100.00
45941;BME280;31858;46.008;8.978;2023-04-29T23:47:29;94409.25;;;14.29;100.00
45941;BME280;31858;46.008;8.978;2023-04-29T23:57:30;94406.91;;;14.31;100.00
